Date,TemperatureHighF,TemperatureAvgF,TemperatureLowF,DewpointHighF,DewpointAvgF,DewpointLowF,HumidityHigh,HumidityAvg,HumidityLow,PressureMaxIn,PressureMinIn,WindSpeedMaxMPH,WindSpeedAvgMPH,GustSpeedMaxMPH,PrecipitationSumIn
2013-3-1,26.8,26.6,26.5,19.0,18.9,18.6,73,72,72,29.76,29.75,3,1,3,0.00
2013-3-2,26.8,24.7,20.5,19.0,14.1,9.6,72,64,53,29.77,29.71,5,1,5,0.00
2013-3-3,35.6,25.6,17.6,20.2,13.4,8.3,69,60,47,29.73,29.63,4,1,4,0.00
2013-3-4,40.5,34.1,28.8,28.2,23.7,14.7,73,66,55,29.65,29.45,11,4,11,0.00
2013-3-5,36.4,33.2,29.0,31.0,28.1,24.8,88,82,73,29.60,29.38,13,3,13,0.06
2013-3-6,36.7,30.6,27.0,25.2,22.9,21.1,83,73,61,29.89,29.60,9,3,9,0.06
2013-3-7,43.6,34.7,27.7,28.3,24.6,20.8,78,67,54,29.97,29.88,5,1,5,0.04
2013-3-8,47.2,37.6,27.7,35.2,28.6,20.8,76,70,61,29.99,29.79,8,3,8,0.00
2013-3-9,49.9,43.1,37.3,42.6,36.2,30.2,84,77,70,29.80,29.35,12,4,12,0.24
2013-3-10,53.3,50.2,47.3,49.8,45.9,40.6,90,85,75,29.36,29.11,8,2,8,1.44
2013-3-11,50.0,40.2,32.0,46.9,35.8,26.0,89,84,79,29.46,29.17,14,5,14,0.02
2013-3-12,42.1,33.1,27.4,32.2,25.4,18.2,81,73,61,29.68,29.45,17,6,17,0.00
2013-3-13,38.2,30.2,23.9,21.6,18.8,16.0,79,63,42,29.91,29.66,14,5,14,0.00
2013-3-14,46.4,35.8,26.6,32.2,25.8,17.5,78,67,55,29.91,29.63,9,2,9,0.00
2013-3-15,63.7,44.1,33.1,49.4,35.3,26.5,79,72,54,29.63,29.21,6,1,6,0.00
2013-3-16,47.7,38.2,32.8,41.1,31.9,26.3,90,78,63,29.66,29.19,6,2,6,0.00
2013-3-17,37.3,33.4,31.0,28.2,26.0,23.3,78,74,68,29.71,29.45,7,2,7,0.00
2013-3-18,40.5,34.1,26.6,34.9,28.0,15.3,87,78,62,29.48,29.24,20,5,20,0.04
2013-3-19,41.6,30.7,21.2,18.9,14.8,10.1,69,53,33,29.76,29.45,18,7,18,0.01
2013-3-20,31.9,25.5,18.4,18.8,10.0,3.3,69,52,37,29.75,29.63,18,7,18,0.00
2013-3-21,39.6,28.5,16.9,17.3,12.1,7.1,67,51,37,29.65,29.55,8,1,8,0.00
2013-3-22,48.8,36.1,23.8,23.7,18.4,12.3,72,50,33,29.62,29.54,7,1,7,0.00
2013-3-23,51.3,40.8,33.3,28.0,24.0,21.3,63,52,39,29.65,29.50,7,2,7,0.00
2013-3-24,34.2,32.1,30.8,29.7,27.6,22.9,89,83,63,29.53,29.18,9,2,9,0.00
2013-3-25,31.1,29.8,28.8,28.1,25.9,23.1,88,85,78,29.37,29.29,3,0,3,0.00
2013-3-29,60.3,50.2,42.7,35.1,31.8,29.3,60,50,39,29.79,29.76,5,0,5,0.00
2013-3-30,58.0,48.3,37.3,43.1,36.8,28.4,79,65,54,29.78,29.44,12,2,12,0.00
2013-3-31,61.6,50.6,41.6,46.2,39.1,26.3,85,67,36,29.49,29.35,20,5,20,0.00
2013-4-1,45.7,38.5,31.3,27.0,20.4,14.7,69,49,32,29.77,29.49,13,3,13,0.00
2013-4-2,49.5,37.8,27.2,22.2,17.6,12.9,65,46,25,29.87,29.77,14,2,14,0.00
2013-4-3,55.1,41.6,29.9,22.7,18.8,15.6,57,41,25,29.98,29.83,8,2,8,0.00
2013-4-4,63.4,48.1,25.0,30.9,24.3,11.1,57,41,25,29.83,29.56,8,1,8,0.00
2013-4-5,63.0,50.4,39.6,33.6,28.2,21.1,67,45,25,29.74,29.57,8,2,8,0.00
2013-4-6,71.5,55.0,43.4,46.9,33.2,22.9,66,44,32,29.62,29.22,16,5,16,0.05
2013-4-7,74.3,59.0,45.0,47.4,42.8,37.2,78,57,37,29.50,29.28,8,2,8,0.00
2013-4-8,75.6,64.6,57.2,58.0,53.5,40.3,85,68,53,29.44,29.19,10,3,10,0.23
2013-4-9,80.5,69.1,59.9,61.8,57.5,52.9,81,68,49,29.44,29.35,8,3,8,0.00
2013-4-10,58.7,47.6,42.3,49.0,43.5,38.3,91,86,70,29.43,29.27,6,3,6,1.58
2013-4-11,52.0,46.2,25.0,47.3,41.5,11.1,91,84,55,29.76,29.16,7,4,7,0.08
2013-4-12,43.7,41.1,39.1,36.5,33.7,31.0,83,75,69,29.47,29.18,11,5,11,0.00
2013-4-13,54.9,45.4,36.5,36.1,31.7,25.1,74,59,43,29.55,29.46,15,4,15,0.00
2013-4-14,76.9,60.6,46.8,53.8,45.2,35.2,74,58,39,29.50,29.17,12,5,12,0.00
2013-4-15,63.7,56.1,46.3,57.1,49.4,41.1,86,78,61,29.54,29.25,6,2,6,0.50
2013-4-16,53.8,48.5,42.8,43.5,39.8,36.1,87,73,51,29.75,29.48,4,1,4,0.70
2013-4-17,56.9,50.0,45.0,54.5,44.4,36.5,92,81,67,29.76,29.32,13,3,13,1.89
2013-4-18,62.3,54.0,25.0,59.4,50.0,11.1,94,87,55,29.76,28.99,12,5,12,1.00
2013-4-19,41.9,39.0,37.1,32.5,30.4,27.9,78,71,65,29.56,29.17,15,7,15,0.00
2013-4-20,53.5,42.6,32.2,34.2,28.8,24.9,77,59,42,29.92,29.57,8,2,8,0.00
2013-4-21,61.2,48.9,38.7,42.5,35.1,28.0,69,59,49,30.00,29.83,8,4,8,0.00
2013-4-22,71.6,57.1,42.3,44.9,40.3,33.7,72,55,34,29.85,29.57,6,3,6,0.00
2013-4-23,57.6,48.6,39.4,48.8,42.8,35.8,87,81,65,29.60,29.46,5,2,5,0.42
2013-4-24,53.8,44.7,37.8,36.4,33.8,30.0,87,67,47,29.72,29.51,10,3,10,0.01
2013-4-25,57.4,48.1,40.9,33.8,31.1,24.1,73,53,37,29.86,29.68,11,4,11,0.00
2013-4-26,68.6,54.1,42.1,49.0,40.6,31.4,73,61,48,29.88,29.79,7,3,7,0.00
2013-4-27,65.9,55.5,46.4,49.6,46.0,40.3,86,72,50,29.84,29.53,7,2,7,0.25
2013-4-28,69.7,58.5,52.9,55.6,52.0,49.5,92,80,60,29.52,29.40,6,1,6,0.01
2013-4-29,77.2,63.1,47.3,60.3,53.3,42.8,86,71,54,29.48,29.31,8,3,8,0.00
2013-4-30,88.6,73.2,59.4,63.1,57.3,52.8,85,61,33,29.51,29.32,7,4,7,0.00
2013-5-1,87.3,73.7,59.6,61.7,54.9,51.6,79,55,32,29.67,29.51,7,2,7,0.00
2013-5-2,70.9,63.9,50.4,60.2,53.9,46.0,86,70,59,29.70,29.64,5,1,5,0.08
2013-5-3,63.2,52.1,44.5,60.5,49.1,41.3,93,89,85,29.65,29.36,5,2,5,0.96
2013-5-9,65.7,62.1,25.0,61.6,57.6,11.1,88,85,55,29.76,29.37,6,2,6,0.24
2013-5-10,62.1,56.7,52.4,58.6,51.8,46.7,90,84,78,29.53,29.36,5,2,5,0.00
2013-5-11,62.5,55.3,47.2,52.4,40.1,28.5,84,60,33,29.65,29.47,13,3,13,0.00
2013-5-12,59.2,50.4,40.7,31.8,29.3,25.6,64,46,30,29.73,29.65,8,2,8,0.00
2013-5-13,72.0,58.3,41.0,41.2,36.1,30.9,70,46,28,29.74,29.58,5,1,5,0.00
2013-5-14,92.5,74.3,54.7,63.0,52.9,39.9,69,49,34,29.57,29.27,5,3,5,0.00
2013-5-15,89.6,78.5,71.5,62.6,57.0,53.7,57,48,35,29.42,29.31,7,2,7,0.00
2013-5-16,83.3,73.5,64.8,59.8,56.4,51.4,70,56,40,29.50,29.39,4,1,4,0.06
2013-5-17,85.3,73.5,61.6,63.1,58.5,54.3,83,61,39,29.56,29.48,5,2,5,0.16
2013-5-18,84.4,73.3,64.6,65.3,62.3,59.7,88,70,49,29.59,29.47,4,1,4,0.00
2013-5-19,92.0,76.6,63.7,69.8,65.1,58.8,86,69,47,29.49,29.28,10,3,10,0.00
2013-5-20,90.4,77.6,64.8,67.7,62.4,59.4,86,62,39,29.41,29.25,16,4,16,0.70
2013-5-21,88.0,74.1,63.0,67.4,62.8,58.4,86,69,47,29.32,29.21,10,3,10,0.03
2013-5-22,74.2,67.8,61.6,62.4,58.5,53.6,86,73,57,29.37,29.20,10,3,13,0.12
2013-5-23,62.3,58.8,51.8,56.3,51.8,45.4,90,78,64,29.81,29.36,9,2,9,0.02
2013-5-24,64.4,51.0,43.7,45.5,40.1,35.6,83,68,43,29.97,29.81,3,0,3,0.00
2013-6-12,101.9,90.9,25.0,73.3,68.6,11.1,68,49,34,29.92,29.17,12,4,12,6.17
2013-6-13,83.0,76.3,71.6,70.8,64.9,62.4,76,68,61,29.28,29.24,12,7,12,0.00
2013-6-14,79.2,74.1,70.9,57.3,54.8,53.6,55,51,44,29.58,29.53,2,0,2,0.00
2013-6-15,82.8,72.9,68.0,70.0,62.1,53.4,87,69,55,29.61,29.45,18,2,18,0.45
2013-6-16,89.6,76.0,65.9,71.6,66.5,61.8,88,74,51,29.54,29.45,8,1,8,0.00
2013-6-17,92.9,80.7,65.9,69.6,63.5,56.9,88,60,33,29.52,29.44,7,1,7,0.00
2013-6-18,88.2,75.8,65.7,65.3,60.6,54.5,88,61,41,29.59,29.44,7,2,7,0.00
2013-6-19,92.2,74.8,58.0,63.3,55.9,47.6,72,54,33,29.66,29.58,5,1,5,0.00
2013-6-20,97.9,82.0,67.3,70.0,62.0,56.3,77,54,32,29.69,29.60,7,2,7,0.00
2013-6-21,95.4,78.0,69.1,71.3,66.7,60.6,88,70,45,29.69,29.53,16,2,16,1.07
2013-6-22,91.3,77.0,68.8,75.5,68.9,62.4,87,77,59,29.63,29.54,8,2,8,0.00
2013-6-23,93.4,78.3,67.3,74.6,68.2,62.6,89,72,51,29.60,29.46,8,2,8,0.01
2013-6-24,94.9,75.4,67.3,75.6,67.2,63.0,89,77,51,29.67,29.44,20,2,20,0.18
2013-6-25,91.1,78.3,70.7,75.8,70.0,64.9,91,77,58,29.50,29.38,8,2,8,0.03
2013-6-26,91.8,78.8,69.1,75.9,70.5,64.6,91,77,58,29.42,29.27,19,2,19,0.07
2013-6-27,93.4,82.4,74.2,73.9,69.7,64.5,89,67,45,29.41,29.31,11,3,11,0.00
2013-6-28,87.1,77.6,67.1,66.7,61.5,57.2,82,60,39,29.37,29.22,13,3,13,0.00
2013-6-29,74.2,69.4,65.9,65.4,61.6,58.1,82,76,66,29.32,29.19,7,1,7,0.16
2013-6-30,79.2,70.1,63.0,63.1,58.2,50.0,82,67,50,29.53,29.32,6,1,6,0.00
2013-7-1,80.6,71.0,61.9,54.4,50.6,47.1,68,50,34,29.59,29.51,6,1,6,0.00
2013-7-2,76.9,67.3,61.7,57.8,53.2,50.6,72,61,46,29.61,29.56,5,1,5,0.00
2013-7-3,83.5,70.5,61.2,60.0,55.4,51.6,76,61,35,29.63,29.57,7,1,7,0.00
2013-7-4,92.0,76.5,62.5,66.3,60.1,54.8,81,59,38,29.65,29.57,7,2,7,0.00
2013-7-5,93.6,78.3,63.5,70.0,61.6,57.1,84,59,32,29.64,29.56,6,1,6,0.00
2013-7-6,92.7,78.2,65.2,71.3,65.1,59.0,85,66,42,29.62,29.54,6,1,6,0.00
2013-7-7,98.5,82.7,25.0,72.4,67.1,11.1,82,62,40,29.76,29.51,7,2,7,0.00
2013-7-8,93.6,82.9,75.1,76.2,71.1,67.2,85,68,54,29.63,29.53,6,1,6,0.22
2013-7-9,95.8,82.3,76.0,77.1,73.4,71.4,89,76,52,29.58,29.52,6,1,6,0.02
2013-7-13,86.6,79.1,73.4,63.2,62.1,60.4,69,57,43,29.67,29.62,5,1,5,0.00
2013-7-14,96.5,82.4,67.1,70.7,66.5,61.8,84,61,39,29.74,29.65,6,2,6,0.00
2013-7-15,96.3,83.3,73.3,75.6,71.6,67.8,84,69,46,29.81,29.73,5,1,5,0.00
2013-7-16,100.3,87.1,73.4,75.7,71.9,69.4,89,63,40,29.88,29.79,6,1,6,0.00
2013-7-17,101.5,88.6,74.3,75.6,72.2,68.2,83,60,40,29.89,29.75,6,1,6,0.00
2013-7-18,101.7,89.8,75.8,76.9,73.1,69.8,85,60,40,29.76,29.56,7,1,7,0.00
2013-7-19,102.2,89.8,77.2,75.5,72.0,69.2,79,58,38,29.56,29.38,7,2,7,0.00
2013-7-20,95.4,85.3,75.4,74.2,66.7,61.7,76,56,34,29.50,29.39,5,1,5,0.01
2013-7-21,86.2,77.9,69.7,73.2,67.7,61.5,82,71,60,29.50,29.41,6,1,6,0.04
2013-7-22,97.0,81.9,68.2,72.3,68.3,63.4,86,66,39,29.43,29.33,7,1,7,0.18
2013-7-23,88.6,76.3,66.6,69.8,63.8,58.1,84,67,47,29.50,29.32,9,2,9,0.04
2013-7-24,81.0,69.2,60.8,58.6,54.8,52.9,80,62,41,29.61,29.50,5,1,5,0.00
2013-7-25,87.7,73.1,58.1,60.9,55.3,49.5,75,55,38,29.68,29.59,5,1,5,0.00
2013-7-26,73.3,67.9,63.9,67.3,61.0,56.9,87,79,65,29.62,29.47,6,1,6,0.70
2013-7-27,69.1,63.5,58.3,58.3,52.1,46.5,87,68,47,29.53,29.48,12,2,12,0.00
2013-7-28,74.9,64.5,54.0,54.9,51.2,46.9,78,63,48,29.61,29.49,12,2,12,0.00
2013-7-29,81.7,69.1,54.7,57.3,53.7,48.0,80,60,37,29.71,29.61,6,1,6,0.00
2013-7-30,68.8,66.7,64.4,65.7,61.5,54.5,92,84,63,29.71,29.59,7,2,7,0.51
2013-7-31,77.8,72.2,67.3,69.1,66.3,63.4,92,82,71,29.59,29.54,6,1,6,0.01
2013-8-1,87.8,75.8,64.6,64.8,61.4,56.0,88,64,37,29.61,29.51,12,2,12,0.01
2013-8-2,92.5,77.4,66.8,72.3,65.7,59.7,84,68,45,29.52,29.43,7,2,7,0.21
2013-8-3,88.4,78.2,67.0,67.7,60.7,55.5,84,57,38,29.68,29.51,6,1,6,0.01
2013-8-4,88.6,74.2,63.0,59.8,56.5,54.2,77,56,34,29.74,29.65,4,1,5,0.00
2013-8-5,80.8,70.5,61.9,65.8,60.0,54.6,81,70,57,29.66,29.43,8,2,8,0.02
2013-8-6,93.6,80.2,67.0,74.5,69.6,61.9,88,71,51,29.48,29.39,7,1,7,0.00
2013-8-7,92.9,81.3,71.5,77.3,71.3,65.2,86,72,51,29.49,29.37,7,1,7,0.02
2013-8-8,85.9,75.4,66.8,67.9,64.0,57.8,85,69,52,29.55,29.48,7,1,7,0.00
2013-8-9,88.4,76.2,63.4,66.7,60.5,54.0,75,59,42,29.62,29.53,7,1,7,0.00
2013-8-10,89.3,77.5,66.6,65.2,60.0,54.5,79,57,37,29.70,29.62,10,1,10,0.00
2013-8-11,92.5,77.1,62.6,65.7,60.4,54.5,80,58,38,29.70,29.60,6,1,6,0.00
2013-8-12,88.6,76.4,66.1,73.6,65.4,59.1,81,70,51,29.63,29.45,6,1,6,0.42
2013-8-13,78.8,69.8,61.2,63.9,55.7,47.6,82,63,37,29.71,29.50,6,1,6,0.00
2013-8-14,76.5,66.3,55.4,54.5,50.4,47.3,79,58,40,29.77,29.69,5,1,5,0.00
2013-8-15,80.1,68.0,58.5,57.2,52.7,49.5,80,60,39,29.74,29.65,5,1,5,0.00
2013-8-16,85.3,72.5,64.1,58.0,54.9,51.8,72,55,34,29.74,29.68,7,1,7,0.00
2013-8-17,83.2,71.1,59.0,59.5,55.2,50.8,82,59,40,29.78,29.70,6,1,6,0.00
2013-8-18,90.9,74.9,61.6,61.0,57.3,53.6,76,57,35,29.75,29.65,5,1,5,0.00
2013-8-19,92.7,77.5,63.5,66.7,62.0,55.6,80,61,39,29.69,29.60,6,1,6,0.00
2013-8-20,95.4,79.2,65.2,69.6,64.4,59.2,82,63,36,29.68,29.59,7,1,7,0.00
2013-8-21,96.7,81.4,66.2,71.2,65.8,60.8,84,62,37,29.67,29.56,7,1,7,0.00
2013-8-22,84.6,75.2,70.6,71.6,66.7,64.2,85,75,62,29.68,29.58,6,1,6,0.04
2013-8-23,90.7,76.9,67.0,69.0,64.8,59.2,86,68,42,29.71,29.62,6,1,6,0.00
2013-8-24,94.0,78.2,63.5,69.7,64.0,56.9,82,64,42,29.79,29.70,5,2,5,0.00
2013-8-25,97.6,80.4,65.3,69.0,64.7,59.7,83,62,35,29.82,29.72,8,1,8,0.00
2013-8-26,100.3,83.1,66.1,73.1,67.3,59.1,82,61,38,29.75,29.58,5,1,5,0.00
2013-8-27,100.8,86.0,71.8,74.0,69.2,64.3,83,60,38,29.60,29.47,6,1,8,0.00
2013-8-28,101.7,85.9,71.8,78.0,69.6,62.3,81,60,42,29.57,29.48,10,2,10,0.00
2013-8-29,92.2,79.6,70.4,73.5,70.2,66.6,90,74,53,29.63,29.53,5,1,5,0.00
2013-8-30,105.1,86.7,70.2,76.4,69.9,61.9,86,61,33,29.54,29.35,7,1,7,0.00
2013-8-31,100.8,84.1,70.7,76.5,68.9,60.4,79,61,45,29.39,29.29,8,1,8,0.00
2013-9-1,95.8,80.6,70.2,72.3,67.4,60.9,88,67,38,29.40,29.31,8,2,8,0.00
2013-9-2,90.2,76.6,66.2,63.2,59.7,54.6,80,58,36,29.55,29.39,8,1,8,0.00
2013-9-3,85.7,71.3,59.9,59.7,56.0,52.4,78,60,37,29.66,29.54,7,1,7,0.00
2013-9-4,92.5,73.6,58.1,61.2,56.0,51.7,81,58,27,29.71,29.61,6,1,6,0.00
2013-9-5,94.5,76.4,63.2,68.7,61.1,55.6,79,61,38,29.76,29.68,5,0,5,0.00
2013-9-6,95.6,77.4,62.3,67.2,60.0,52.8,74,57,36,29.75,29.58,6,1,6,0.00
2013-9-7,95.9,79.1,63.4,67.4,62.9,56.7,82,61,35,29.59,29.46,6,1,6,0.00
2013-9-8,94.3,81.1,72.4,70.8,68.0,65.4,82,66,43,29.55,29.45,6,1,6,0.00
2013-9-9,104.9,85.8,70.2,74.4,70.2,65.5,89,63,33,29.50,29.41,8,1,8,0.00
2013-9-10,103.0,86.6,70.4,71.6,66.1,61.0,78,54,27,29.61,29.49,10,1,10,0.00
2013-9-11,83.5,77.6,73.8,65.6,63.7,62.6,70,62,54,29.61,29.59,3,0,3,0.00
2013-9-14,76.1,68.2,56.7,48.4,45.3,42.9,66,45,32,29.74,29.59,6,1,6,0.00
2013-9-15,68.0,61.1,55.3,59.4,50.8,43.4,80,69,56,29.60,29.53,8,1,8,0.09
2013-10-2,87.5,77.1,68.8,67.9,65.0,61.8,86,68,44,29.62,29.52,5,2,5,0.00
2013-10-3,85.9,71.6,65.2,71.0,64.8,60.6,89,80,57,29.53,29.39,9,2,9,0.85
2013-10-4,90.9,75.3,64.8,72.3,66.0,60.4,90,75,47,29.53,29.45,7,1,7,0.00
2013-10-5,82.3,72.4,60.7,71.1,64.7,52.7,88,77,57,29.49,29.34,8,2,8,0.05
2013-10-6,60.5,53.4,47.5,52.9,43.7,38.5,84,70,54,29.40,29.32,8,2,8,0.02
2013-10-7,68.8,56.4,46.4,49.2,46.0,42.4,91,70,46,29.65,29.36,9,2,11,0.00
2013-10-8,77.8,62.2,47.9,53.7,46.8,41.6,85,60,34,29.75,29.64,6,1,6,0.00
2013-10-9,75.6,61.7,49.3,50.8,45.7,42.4,78,58,34,29.76,29.65,6,1,6,0.00
2013-10-10,78.7,64.4,52.2,58.9,51.7,43.9,81,64,46,29.71,29.57,6,1,6,0.00
2013-10-11,79.6,67.0,57.2,60.5,54.2,51.1,83,65,42,29.60,29.46,9,2,9,0.00
2013-10-12,72.4,64.2,54.9,61.6,52.3,40.8,82,67,36,29.76,29.49,10,2,10,0.00
2013-10-13,70.7,57.3,47.7,43.3,38.8,34.9,73,52,28,29.93,29.76,7,1,7,0.00
2013-10-14,61.6,52.3,44.1,44.7,39.2,34.5,77,61,50,29.92,29.84,8,2,8,0.00
2013-10-18,54.7,51.2,47.2,40.4,38.4,36.2,76,62,54,29.56,29.50,11,2,11,0.01
2013-11-1,50.0,46.3,44.1,42.9,41.3,39.2,84,82,75,29.34,29.26,0,0,0,0.00
2013-11-2,52.6,45.5,40.7,39.3,36.9,33.0,88,73,52,29.67,29.33,9,2,9,0.01
2013-11-3,55.1,49.6,42.8,40.9,37.3,35.0,80,63,51,29.83,29.71,8,2,8,0.00
2013-11-4,45.0,44.2,43.6,37.7,36.6,35.5,76,74,73,29.74,29.69,7,2,7,0.00
2013-11-6,42.8,39.3,36.7,37.4,32.6,29.3,82,77,74,29.76,29.69,8,2,8,0.00
2013-11-7,39.2,35.7,32.4,31.6,29.1,26.8,80,77,73,29.82,29.76,8,2,8,0.00
2013-11-8,50.6,41.9,31.3,36.3,32.1,25.6,81,69,54,29.87,29.57,10,2,10,0.00
2013-11-17,70.6,65.2,46.1,63.7,60.7,34.6,89,85,64,29.57,28.80,22,5,22,0.28
2013-11-18,47.5,42.3,35.3,39.4,31.6,26.8,82,66,53,29.83,29.43,17,5,17,0.00
2013-11-19,47.3,37.6,30.6,32.3,27.8,23.6,76,68,54,29.91,29.77,6,1,6,0.00
2013-11-20,44.8,38.8,32.8,38.3,32.0,26.5,83,77,66,29.79,29.59,8,3,10,0.21
2013-11-21,49.9,46.3,43.4,45.8,41.7,38.3,87,84,81,29.77,29.63,4,1,4,0.11
2013-11-22,44.6,37.6,29.3,41.1,32.5,23.5,87,82,73,30.06,29.75,9,1,9,0.01
2013-11-23,29.5,24.0,17.1,23.7,14.3,6.3,82,67,53,30.27,30.03,11,2,11,0.00
2013-11-24,31.9,22.4,14.8,15.0,10.5,5.7,72,61,43,30.29,29.94,6,1,6,0.00
2013-11-25,35.1,31.1,24.1,25.6,20.4,13.7,70,64,56,29.94,29.66,10,2,10,0.00
2013-11-26,36.5,29.4,19.4,26.8,18.8,6.6,76,65,52,29.75,29.60,13,3,13,0.00
2013-11-27,29.3,22.0,15.3,12.3,9.1,4.7,65,58,47,29.84,29.74,11,2,11,0.00
2013-11-28,39.1,34.6,27.7,21.7,19.5,16.4,62,54,48,30.02,29.76,10,2,10,0.00
2013-11-29,40.3,30.5,20.5,24.4,19.2,11.9,72,63,51,30.15,29.91,8,1,8,0.00
2013-11-30,52.7,39.0,29.9,34.7,28.0,21.2,76,65,49,29.91,29.61,8,1,8,0.00
2013-12-1,49.3,39.3,30.2,34.9,29.2,23.6,79,68,54,29.66,29.50,7,0,7,0.00
2013-12-2,46.4,40.1,33.8,37.5,33.4,28.5,82,77,69,29.50,29.22,6,2,6,0.00
2013-12-3,50.8,45.7,39.8,47.3,41.9,34.8,89,87,82,29.25,29.17,8,2,8,0.00
2013-12-4,49.0,46.8,45.7,46.2,43.6,42.1,90,88,87,29.25,29.19,6,2,6,0.01
2013-12-5,39.1,24.1,21.6,33.1,14.2,11.6,79,66,62,29.81,29.33,9,4,9,0.00
2013-12-6,20.7,18.0,14.0,10.0,8.0,5.1,69,65,60,30.11,29.89,7,1,7,0.00
2013-12-7,23.2,16.3,10.4,7.7,5.5,3.6,74,63,48,30.23,30.06,6,1,6,0.00
2013-12-8,28.8,23.6,15.7,23.5,17.1,5.9,83,76,63,30.06,29.53,8,2,8,0.00
2013-12-9,26.3,19.6,11.5,21.5,11.1,0.7,82,69,58,29.81,29.53,15,5,15,0.00
2013-12-10,27.0,17.4,7.6,13.9,7.0,-1.2,74,64,48,29.84,29.62,19,3,19,0.00
2013-12-11,25.0,18.5,6.1,16.7,7.4,-4.4,75,62,44,30.14,29.77,13,2,13,0.00
2013-12-12,26.1,16.3,6.1,14.5,5.6,-4.2,65,62,61,30.13,29.75,4,0,5,0.00
2013-12-13,40.7,30.0,19.1,29.0,21.1,10.4,83,70,58,29.75,29.55,6,1,6,0.02
2013-12-14,35.5,31.1,22.7,30.2,26.4,17.2,87,83,79,29.60,29.44,9,1,9,0.01
2013-12-15,22.7,17.6,14.0,17.1,11.5,8.9,81,77,63,29.65,29.58,12,5,12,0.00
2013-12-16,27.9,21.4,16.2,19.7,15.2,10.4,86,77,70,29.66,29.54,6,1,6,0.00
2013-12-17,36.0,27.1,22.5,27.6,20.1,15.4,87,75,63,29.73,29.59,14,4,14,0.10
2013-12-18,37.3,28.5,16.6,30.7,19.7,8.7,77,69,58,29.74,29.41,11,2,11,0.08
2013-12-19,45.7,37.5,33.5,38.3,31.7,27.3,86,80,74,29.45,29.30,4,1,4,0.08
2013-12-20,42.5,36.5,32.4,39.0,33.4,29.3,90,89,86,29.39,29.25,9,2,9,0.16
2013-12-21,33.8,31.5,29.9,31.1,28.4,26.5,90,88,87,29.41,29.12,7,1,7,0.00
2013-12-22,34.2,33.9,33.8,31.3,31.2,31.1,90,90,90,29.16,29.13,0,0,0,0.02